Time;durP1;ratioP1;P1;durP2;ratioP2;P2;SDS_P1;SDS_P2;PMS_P1;PMS_P2;Temp;Humidity;BMP_temperature;BMP_pressure;BME280_temperature;BME280_humidity;BME280_pressure;Samples;Min_cycle;Max_cycle;Signal;HPM_P1;HPM_P2
2022/04/21 00:01:20;;;;;;;2.50;2.30;;;;;;;9.14;64.27;100008.47;5076593;28;20208;-81
2022/04/21 00:03:50;;;;;;;2.17;2.03;;;;;;;9.15;64.20;100015.38;5076619;28;20208;-82
2022/04/21 00:06:21;;;;;;;3.07;2.47;;;;;;;9.13;64.58;99998.94;5075658;28;20228;-81
2022/04/21 00:08:55;;;;;;;2.07;1.97;;;;;;;9.13;63.93;100004.16;5076043;28;20286;-81
2022/04/21 00:11:24;;;;;;;2.97;2.10;;;;;;;9.04;64.91;100006.97;5076696;28;20205;-82
2022/04/21 00:13:57;;;;;;;2.40;2.20;;;;;;;9.01;65.05;99987.94;5075524;28;20633;-82
2022/04/21 00:16:30;;;;;;;2.70;2.50;;;;;;;8.97;65.33;99986.28;5075882;28;20254;-82
2022/04/21 00:19:00;;;;;;;3.83;2.40;;;;;;;8.97;65.04;99974.13;5076257;28;20287;-82
2022/04/21 00:23:26;;;;;;;2.23;2.13;;;;;;;8.99;65.28;99977.53;5076372;28;20208;-82
2022/04/21 00:24:30;;;;;;;6.83;2.40;;;;;;;8.99;65.17;99979.28;5075513;28;20211;-81
2022/04/21 00:27:00;;;;;;;2.13;2.03;;;;;;;9.00;65.22;99981.88;5076252;28;20225;-80
2022/04/21 00:29:28;;;;;;;2.40;2.20;;;;;;;8.92;65.56;99983.78;5076110;28;20274;-81
2022/04/21 00:31:54;;;;;;;2.77;2.53;;;;;;;8.90;65.56;99975.09;5076584;28;20228;-82
2022/04/21 00:34:22;;;;;;;2.43;2.23;;;;;;;8.82;65.72;99971.81;5074732;28;20196;-82
2022/04/21 00:36:56;;;;;;;2.73;2.30;;;;;;;8.83;65.61;99970.94;5075797;28;20257;-81
2022/04/21 00:39:24;;;;;;;2.97;2.03;;;;;;;8.76;66.17;99967.59;5076457;28;20228;-82
2022/04/21 00:41:57;;;;;;;2.67;2.47;;;;;;;8.75;65.69;99963.25;5075941;28;20230;-82
2022/04/21 00:44:26;;;;;;;2.67;2.47;;;;;;;8.70;66.22;99958.16;5075482;28;20278;-81
2022/04/21 00:46:56;;;;;;;2.70;2.50;;;;;;;8.66;66.65;99956.50;5075343;28;20694;-82
2022/04/21 00:49:27;;;;;;;2.60;2.40;;;;;;;8.65;66.60;99952.16;5075736;28;20229;-81
2022/04/21 00:51:55;;;;;;;2.80;2.60;;;;;;;8.65;65.99;99956.53;5076194;28;20223;-81
2022/04/21 00:54:22;;;;;;;2.87;2.67;;;;;;;8.60;65.64;99946.19;5075725;28;20235;-81
2022/04/21 00:56:50;;;;;;;3.43;2.47;;;;;;;8.59;66.64;99947.09;5075764;28;20626;-82
2022/04/21 00:59:20;;;;;;;2.90;2.60;;;;;;;8.61;65.80;99960.94;5075885;28;20228;-81
2022/04/21 01:04:36;;;;;;;2.73;2.53;;;;;;;8.49;66.70;99959.41;5076129;28;20281;-81
2022/04/21 01:07:08;;;;;;;2.43;2.33;;;;;;;8.47;66.48;99952.53;5075507;28;20772;-81
2022/04/21 01:09:38;;;;;;;2.63;2.43;;;;;;;8.39;66.87;99954.38;5076583;28;20277;-82
2022/04/21 01:12:11;;;;;;;2.90;2.70;;;;;;;8.37;66.14;99949.19;5076262;28;20209;-81
2022/04/21 01:14:40;;;;;;;2.63;2.43;;;;;;;8.33;66.08;99943.19;5075734;28;20201;-81
2022/04/21 01:17:06;;;;;;;2.30;2.10;;;;;;;8.29;66.42;99948.47;5076001;28;20239;-82
2022/04/21 01:19:33;;;;;;;2.80;2.60;;;;;;;8.22;65.69;99955.50;5076130;28;20228;-82
2022/04/21 01:22:01;;;;;;;3.30;2.33;;;;;;;8.18;67.26;99947.78;5076471;28;20201;-82
2022/04/21 01:24:30;;;;;;;3.40;3.10;;;;;;;8.16;67.58;99935.66;5075634;28;20216;-81
2022/04/21 01:26:57;;;;;;;2.50;2.30;;;;;;;8.21;67.06;99930.41;5078061;28;20224;-82
2022/04/21 01:29:24;;;;;;;2.97;2.77;;;;;;;8.16;67.56;99917.47;5079784;28;20315;-82
2022/04/21 01:31:50;;;;;;;2.77;2.57;;;;;;;8.09;67.50;99900.28;5068558;28;20676;-81
2022/04/21 01:34:23;;;;;;;3.13;2.53;;;;;;;8.10;67.42;99908.94;5067885;28;20199;-81
2022/04/21 01:42:27;;;;;;;5.93;2.50;;;;;;;8.00;67.37;99916.03;5079126;28;20208;-81
2022/04/21 01:44:54;;;;;;;2.70;2.50;;;;;;;7.96;67.65;99906.56;5079425;28;20690;-81
2022/04/21 01:47:22;;;;;;;3.90;2.57;;;;;;;7.95;67.98;99905.72;5079634;28;20224;-82
2022/04/21 01:49:48;;;;;;;2.27;2.17;;;;;;;7.89;67.99;99900.63;5080009;28;20290;-82
2022/04/21 01:52:17;;;;;;;3.00;2.80;;;;;;;7.90;68.55;99898.88;5079543;28;20205;-82
2022/04/21 01:54:50;;;;;;;3.33;2.73;;;;;;;7.67;69.30;99881.94;5080160;28;20239;-82
2022/04/21 01:57:17;;;;;;;3.50;2.80;;;;;;;7.62;68.78;99870.75;5079516;28;20245;-82
2022/04/21 01:59:43;;;;;;;2.90;2.70;;;;;;;7.66;69.58;99862.03;5079558;28;20619;-82
2022/04/21 02:02:09;;;;;;;2.77;2.57;;;;;;;7.69;68.85;99874.97;5078985;28;20744;-82
2022/04/21 02:04:36;;;;;;;3.30;3.10;;;;;;;7.69;68.85;99876.69;5078697;28;20250;-82
2022/04/21 02:07:03;;;;;;;2.70;2.50;;;;;;;7.72;68.65;99894.84;5078842;28;20298;-82
2022/04/21 02:09:30;;;;;;;5.60;3.20;;;;;;;7.65;68.44;99908.78;5078794;28;20772;-82
2022/04/21 02:11:58;;;;;;;2.70;2.50;;;;;;;7.67;68.10;99896.63;5078627;28;20247;-82
2022/04/21 02:14:27;;;;;;;3.07;2.73;;;;;;;7.67;68.86;99894.03;5078996;28;20291;-82
2022/04/21 02:16:54;;;;;;;5.13;3.13;;;;;;;7.69;68.37;99894.88;5079249;28;20201;-81
2022/04/21 02:19:20;;;;;;;3.23;3.03;;;;;;;7.68;68.74;99895.78;5078849;28;20229;-82
2022/04/21 02:21:46;;;;;;;3.20;3.00;;;;;;;7.62;68.07;99898.47;5079220;28;20208;-82
2022/04/21 02:24:13;;;;;;;3.77;3.37;;;;;;;7.54;68.23;99902.03;5078877;28;20254;-82
2022/04/21 02:26:39;;;;;;;3.53;3.33;;;;;;;7.50;68.80;99891.72;5079175;28;20293;-82
2022/04/21 02:29:07;;;;;;;3.70;3.40;;;;;;;7.47;69.34;99890.03;5076967;28;20255;-82
2022/04/21 02:31:35;;;;;;;3.70;3.40;;;;;;;7.23;70.37;99874.81;5078907;28;20209;-82
2022/04/21 02:34:04;;;;;;;3.57;3.27;;;;;;;7.19;70.13;99858.41;5078716;28;20208;-81
2022/04/21 02:36:30;;;;;;;2.97;2.77;;;;;;;7.19;70.51;99844.59;5078571;28;20231;-82
2022/04/21 02:38:57;;;;;;;3.40;3.10;;;;;;;7.19;70.27;99848.03;5077850;28;20652;-82
2022/04/21 02:41:26;;;;;;;4.03;3.27;;;;;;;7.17;70.12;99842.00;5079853;28;20215;-82
2022/04/21 02:43:52;;;;;;;3.83;3.53;;;;;;;7.19;70.60;99839.41;5078480;28;20209;-82
2022/04/21 02:46:23;;;;;;;4.40;3.37;;;;;;;7.20;69.50;99841.13;5077924;28;20225;-81
2022/04/21 02:48:51;;;;;;;3.67;3.37;;;;;;;7.13;71.07;99829.97;5077760;28;20221;-82
2022/04/21 02:51:17;;;;;;;3.20;2.90;;;;;;;7.13;70.23;99832.56;5077928;28;20204;-82
2022/04/21 02:59:14;;;;;;;3.83;3.53;;;;;;;7.02;70.67;99813.72;5077474;28;20297;-82
2022/04/21 03:01:42;;;;;;;3.60;3.27;;;;;;;6.91;71.45;99803.47;5079111;28;20200;-82
2022/04/21 03:04:08;;;;;;;3.60;3.30;;;;;;;6.92;71.15;99810.38;5078712;28;20209;-82
2022/04/21 03:06:35;;;;;;;4.53;3.43;;;;;;;6.92;71.54;99802.59;5078530;28;20246;-82
2022/04/21 03:09:02;;;;;;;3.97;3.67;;;;;;;6.93;71.04;99801.69;5079589;28;20719;-82
2022/04/21 03:11:29;;;;;;;5.50;4.33;;;;;;;6.72;72.45;99779.53;5079313;28;20258;-82
2022/04/21 03:13:55;;;;;;;3.47;3.17;;;;;;;6.67;72.90;99758.84;5079471;28;20204;-82
2022/04/21 03:16:24;;;;;;;4.27;3.50;;;;;;;6.61;73.25;99747.69;5079490;28;20255;-82
2022/04/21 03:18:59;;;;;;;3.57;3.33;;;;;;;6.55;73.15;99739.13;5080273;28;20256;-82
2022/04/21 03:24:21;;;;;;;5.40;3.50;;;;;;;6.56;72.73;99724.41;5080271;28;20211;-82
2022/04/21 03:26:48;;;;;;;4.30;3.47;;;;;;;6.47;73.38;99716.78;5080535;28;20235;-82
2022/04/21 03:29:20;;;;;;;3.80;3.50;;;;;;;6.30;74.10;99715.28;5080907;28;20263;-82
2022/04/21 03:31:48;;;;;;;3.93;3.60;;;;;;;6.08;75.40;99691.34;5080768;28;20215;-82
2022/04/21 03:34:24;;;;;;;4.17;3.87;;;;;;;5.94;75.55;99664.75;5081356;28;20289;-82
2022/04/21 03:36:51;;;;;;;4.23;3.93;;;;;;;6.08;75.31;99675.81;5086258;28;20226;-81
2022/04/21 03:39:21;;;;;;;4.60;4.20;;;;;;;6.10;75.99;99665.44;5093086;28;20252;-82
2022/04/21 03:41:53;;;;;;;4.47;4.07;;;;;;;6.19;75.08;99677.44;5091938;28;20200;-82
2022/04/21 03:44:22;;;;;;;4.70;4.30;;;;;;;6.03;76.47;99664.66;5092169;28;20197;-82
2022/04/21 03:46:48;;;;;;;4.20;3.80;;;;;;;6.07;76.30;99658.56;5090220;28;20220;-82
2022/04/21 03:49:16;;;;;;;4.67;4.23;;;;;;;6.01;76.20;99668.16;5090853;28;20266;-81
2022/04/21 03:51:46;;;;;;;6.93;3.97;;;;;;;6.05;76.09;99662.06;5091021;28;20212;-81
2022/04/21 03:54:12;;;;;;;4.50;4.10;;;;;;;6.07;76.20;99671.53;5089864;28;20200;-82
2022/04/21 03:56:39;;;;;;;4.10;3.80;;;;;;;6.08;76.38;99677.53;5090900;28;20204;-82
2022/04/21 03:59:05;;;;;;;4.10;3.33;;;;;;;6.15;76.03;99676.59;5089635;28;20298;-81
2022/04/21 04:01:32;;;;;;;4.43;4.03;;;;;;;6.20;75.54;99698.13;5089425;28;20205;-82
2022/04/21 04:03:58;;;;;;;4.03;3.63;;;;;;;6.29;75.55;99710.09;5089785;28;20269;-81
2022/04/21 04:11:56;;;;;;;4.40;4.00;;;;;;;6.22;74.29;99740.41;5076428;28;20215;-82
2022/04/21 04:14:25;;;;;;;6.57;3.90;;;;;;;6.24;74.44;99741.25;5076050;28;20265;-82
2022/04/21 04:16:52;;;;;;;4.50;3.80;;;;;;;6.30;74.28;99743.78;5077544;28;20204;-81
2022/04/21 04:19:18;;;;;;;4.83;4.37;;;;;;;6.25;74.77;99726.56;5081350;28;20224;-81
2022/04/21 04:21:46;;;;;;;4.40;4.10;;;;;;;6.29;74.76;99725.66;5084075;28;20209;-80
2022/04/21 04:24:12;;;;;;;4.03;3.73;;;;;;;6.31;75.23;99731.69;5081514;28;20201;-81
2022/04/21 04:26:38;;;;;;;4.83;4.33;;;;;;;6.31;75.20;99735.13;5077457;28;20263;-81
2022/04/21 04:31:33;;;;;;;4.27;3.73;;;;;;;6.38;75.49;99722.06;5075603;28;20579;-77
2022/04/21 04:34:00;;;;;;;4.13;3.70;;;;;;;6.42;75.46;99722.03;5071601;28;20201;-77
2022/04/21 04:36:27;;;;;;;7.50;3.83;;;;;;;6.45;75.61;99714.19;5071818;28;20278;-75
2022/04/21 04:38:55;;;;;;;4.17;3.87;;;;;;;6.43;75.97;99696.97;5071958;28;20204;-77
2022/04/21 04:44:06;;;;;;;4.77;4.30;;;;;;;6.46;76.03;99707.28;5071621;28;20215;-77
2022/04/21 04:46:37;;;;;;;6.43;4.10;;;;;;;6.52;75.54;99720.16;5076922;28;20211;-77
2022/04/21 04:49:06;;;;;;;4.20;3.83;;;;;;;6.51;76.20;99726.22;5091865;28;20223;-77
2022/04/21 04:51:33;;;;;;;4.87;4.30;;;;;;;6.58;75.67;99730.47;5084644;28;20248;-77
2022/04/21 04:54:05;;;;;;;5.47;4.33;;;;;;;6.52;76.52;99727.91;5071224;28;20205;-76
2022/04/21 04:56:31;;;;;;;6.83;4.60;;;;;;;6.57;75.78;99721.81;5071933;28;20623;-76
2022/04/21 04:58:58;;;;;;;5.23;4.43;;;;;;;6.60;75.15;99745.97;5071680;28;20212;-76
2022/04/21 05:01:28;;;;;;;4.77;3.90;;;;;;;6.55;74.24;99766.78;5073544;28;20253;-76
2022/04/21 05:04:01;;;;;;;6.20;4.40;;;;;;;6.64;74.70;99764.09;5075538;28;20250;-76
2022/04/21 05:06:28;;;;;;;4.50;4.10;;;;;;;6.66;73.88;99772.69;5075592;28;20213;-76
2022/04/21 05:08:55;;;;;;;5.43;4.93;;;;;;;6.47;75.04;99781.59;5075359;28;20899;-76
2022/04/21 05:11:23;;;;;;;4.80;4.50;;;;;;;6.54;74.44;99778.03;5075739;28;20229;-76
2022/04/21 05:13:50;;;;;;;4.87;4.37;;;;;;;6.62;75.23;99773.63;5075221;28;20242;-75
2022/04/21 05:16:16;;;;;;;5.30;4.70;;;;;;;6.71;74.78;99772.63;5078337;28;20253;-75
2022/04/21 05:18:43;;;;;;;7.10;5.03;;;;;;;6.80;74.06;99793.25;5095630;28;20652;-75
2022/04/21 05:21:10;;;;;;;4.80;4.40;;;;;;;6.83;73.87;99790.59;5093535;28;20232;-75
2022/04/21 05:23:38;;;;;;;11.03;4.50;;;;;;;6.85;73.96;99806.16;5092260;28;20211;-74
2022/04/21 05:26:05;;;;;;;4.70;4.30;;;;;;;6.89;73.94;99818.19;5095438;28;20200;-74
2022/04/21 05:28:34;;;;;;;5.50;5.00;;;;;;;6.95;74.39;99808.56;5102722;28;20220;-77
2022/04/21 05:31:01;;;;;;;5.10;4.60;;;;;;;7.06;73.19;99820.56;5103919;28;20220;-77
2022/04/21 05:33:29;;;;;;;5.00;4.60;;;;;;;7.07;72.95;99832.66;5100342;28;20212;-74
2022/04/21 05:35:58;;;;;;;4.73;4.33;;;;;;;7.16;72.62;99851.53;5094941;28;20215;-75
2022/04/21 05:38:25;;;;;;;7.47;5.03;;;;;;;7.19;72.14;99871.41;5095548;28;20204;-77
2022/04/21 05:40:52;;;;;;;6.53;4.67;;;;;;;7.23;71.53;99887.78;5095367;28;20223;-76
2022/04/21 05:43:20;;;;;;;5.03;4.63;;;;;;;7.24;71.74;99877.38;5095317;28;20204;-76
2022/04/21 05:45:49;;;;;;;6.73;4.50;;;;;;;7.36;71.65;99886.75;5095112;28;20208;-74
2022/04/21 05:48:16;;;;;;;4.50;4.10;;;;;;;7.43;71.51;99883.16;5094854;28;20224;-77
2022/04/21 05:50:45;;;;;;;6.17;4.33;;;;;;;7.46;71.13;99898.69;5095289;28;20224;-74
2022/04/21 05:53:19;;;;;;;4.10;3.80;;;;;;;7.50;71.28;99891.72;5093341;28;20291;-75
2022/04/21 05:55:46;;;;;;;4.77;4.33;;;;;;;7.53;70.09;99928.03;5098196;28;20242;-75
2022/04/21 05:58:13;;;;;;;3.93;3.63;;;;;;;7.58;69.82;99953.94;5106452;28;20192;-75
2022/04/21 06:00:39;;;;;;;3.73;3.43;;;;;;;7.64;70.29;99935.66;5103653;28;20223;-75
2022/04/21 06:03:08;;;;;;;4.60;4.23;;;;;;;7.68;70.27;99947.72;5101061;28;20204;-75
2022/04/21 06:05:34;;;;;;;4.37;3.97;;;;;;;7.68;69.76;99971.97;5103945;28;20195;-74
2022/04/21 06:08:01;;;;;;;4.97;3.70;;;;;;;7.68;69.37;99971.09;5105612;28;20227;-75
2022/04/21 06:10:27;;;;;;;6.73;4.17;;;;;;;7.69;69.43;99970.22;5102500;28;20228;-76
2022/04/21 06:12:55;;;;;;;4.53;4.13;;;;;;;7.70;68.72;99974.53;5103275;28;20298;-76
2022/04/21 06:15:21;;;;;;;4.17;3.70;;;;;;;7.65;69.12;99981.53;5104857;28;20257;-73
2022/04/21 06:17:48;;;;;;;4.17;3.87;;;;;;;7.67;69.52;99979.75;5106404;28;20202;-75
2022/04/21 06:20:16;;;;;;;3.97;3.70;;;;;;;7.68;70.00;99956.38;5103834;28;20218;-76
2022/04/21 06:22:42;;;;;;;4.33;4.03;;;;;;;7.71;70.63;99958.06;5106688;28;20191;-76
2022/04/21 06:25:09;;;;;;;4.50;4.10;;;;;;;7.71;70.13;99958.06;5103323;28;20200;-75
2022/04/21 06:27:36;;;;;;;4.23;3.70;;;;;;;7.72;70.18;99965.84;5103518;28;20214;-75
2022/04/21 06:30:02;;;;;;;5.20;4.43;;;;;;;7.73;69.88;99951.97;5095728;28;20216;-76
2022/04/21 06:32:29;;;;;;;4.30;3.90;;;;;;;7.72;70.15;99937.25;5100613;28;20269;-75
2022/04/21 06:34:56;;;;;;;4.03;3.53;;;;;;;7.73;69.38;99956.28;5103744;28;20248;-75
2022/04/21 06:37:24;;;;;;;6.27;4.27;;;;;;;7.74;69.51;99958.88;5105143;28;20206;-75
2022/04/21 06:39:51;;;;;;;4.10;3.70;;;;;;;7.76;69.75;99956.25;5103510;28;20669;-75
2022/04/21 06:42:17;;;;;;;4.23;3.90;;;;;;;7.74;69.26;99968.41;5103175;28;20206;-76
2022/04/21 06:50:11;;;;;;;4.23;3.83;;;;;;;7.68;69.49;99997.09;5100621;28;20247;-76
2022/04/21 06:52:39;;;;;;;3.97;3.67;;;;;;;7.69;69.13;99999.66;5098946;28;20199;-76
2022/04/21 06:55:06;;;;;;;4.33;3.60;;;;;;;7.71;69.13;100002.22;5099834;28;20207;-76
2022/04/21 06:57:32;;;;;;;5.10;3.83;;;;;;;7.71;68.46;100007.41;5103912;28;20249;-76
2022/04/21 06:59:59;;;;;;;4.30;3.70;;;;;;;7.69;69.33;99999.66;5104426;28;20204;-76
2022/04/21 07:02:31;;;;;;;4.77;4.37;;;;;;;7.71;69.04;99987.50;5102324;28;20811;-75
2022/04/21 07:05:02;;;;;;;3.73;3.33;;;;;;;7.74;68.87;100010.84;5102590;28;20210;-76
2022/04/21 07:07:29;;;;;;;4.20;3.80;;;;;;;7.72;68.53;100011.75;5095843;28;20204;-76
2022/04/21 07:09:57;;;;;;;5.07;4.40;;;;;;;7.76;69.02;99997.81;5101450;28;20729;-76
2022/04/21 07:12:26;;;;;;;3.73;3.43;;;;;;;7.79;68.81;99990.00;5104818;28;20205;-73
2022/04/21 07:14:53;;;;;;;4.03;3.73;;;;;;;7.86;69.25;100004.59;5103120;28;20264;-76
2022/04/21 07:17:20;;;;;;;4.00;3.70;;;;;;;7.92;68.55;100007.09;5103994;28;20209;-76
2022/04/21 07:19:46;;;;;;;6.17;4.20;;;;;;;7.98;68.61;100019.16;5099443;28;20203;-74
2022/04/21 07:22:12;;;;;;;4.10;3.80;;;;;;;8.08;68.49;100030.28;5100401;28;20219;-75
2022/04/21 07:24:39;;;;;;;5.90;4.50;;;;;;;8.19;68.19;100049.16;5100874;28;20269;-76
2022/04/21 07:27:07;;;;;;;4.63;4.23;;;;;;;8.29;67.58;100047.28;5104221;28;20203;-77
2022/04/21 07:29:35;;;;;;;3.90;3.60;;;;;;;8.34;66.91;100061.06;5102845;28;20220;-76
2022/04/21 07:32:01;;;;;;;6.13;3.90;;;;;;;8.39;66.33;100079.22;5101913;28;20223;-76
2022/04/21 07:34:28;;;;;;;4.30;3.97;;;;;;;8.45;66.81;100079.16;5103491;28;20203;-76
2022/04/21 07:36:54;;;;;;;5.40;4.60;;;;;;;8.54;67.46;100069.44;5100553;28;20658;-76
2022/04/21 07:39:21;;;;;;;4.27;3.87;;;;;;;8.66;66.53;100075.31;5099039;28;20199;-76
2022/04/21 07:41:47;;;;;;;4.67;4.33;;;;;;;8.73;66.43;100082.13;5101820;28;20220;-75
2022/04/21 07:44:15;;;;;;;6.47;4.00;;;;;;;8.79;66.18;100086.38;5102669;28;20192;-76
2022/04/21 07:46:41;;;;;;;4.90;4.20;;;;;;;8.86;66.55;100088.84;5103867;28;20207;-76
2022/04/21 07:53:13;;;;;;;5.13;4.63;;;;;;;9.07;65.67;100095.41;5078810;28;20223;-76
2022/04/21 07:54:43;;;;;;;4.37;4.07;;;;;;;9.11;65.09;100107.47;5100416;28;20683;-77
2022/04/21 07:57:10;;;;;;;4.20;3.50;;;;;;;9.21;65.34;100122.94;5102772;28;20231;-76
2022/04/21 07:59:37;;;;;;;4.73;3.73;;;;;;;9.28;65.07;100115.00;5102779;28;20238;-76
2022/04/21 08:02:06;;;;;;;6.27;4.47;;;;;;;9.37;64.89;100128.72;5101162;28;20588;-75
2022/04/21 08:04:33;;;;;;;4.93;4.27;;;;;;;9.43;64.30;100133.81;5102333;28;20223;-76
2022/04/21 08:07:00;;;;;;;4.13;3.83;;;;;;;9.51;63.42;100166.66;5100995;28;20261;-76
2022/04/21 08:09:26;;;;;;;5.73;5.30;;;;;;;9.53;64.38;100151.84;5098231;28;20216;-77
2022/04/21 08:11:53;;;;;;;4.33;3.80;;;;;;;9.62;64.74;100147.34;5103026;28;20273;-76
2022/04/21 08:14:19;;;;;;;4.73;4.33;;;;;;;9.66;65.10;100123.78;5104317;28;20234;-76
2022/04/21 08:16:47;;;;;;;4.80;4.37;;;;;;;9.82;64.40;100136.53;5103143;28;20191;-75
2022/04/21 08:19:14;;;;;;;5.73;4.53;;;;;;;9.88;64.34;100144.22;5102339;28;20192;-76
2022/04/21 08:21:42;;;;;;;4.67;4.27;;;;;;;9.99;63.67;100142.25;5101309;28;20215;-76
2022/04/21 08:32:41;;;;;;;5.23;4.77;;;;;;;10.33;64.34;100145.00;5062235;28;20683;-76
2022/04/21 08:35:09;;;;;;;5.00;4.47;;;;;;;10.43;63.41;100176.09;5100716;28;20203;-76
2022/04/21 08:37:36;;;;;;;5.10;4.50;;;;;;;10.47;64.23;100157.72;5101090;28;20200;-76
2022/04/21 08:40:04;;;;;;;5.37;3.97;;;;;;;10.60;64.23;100173.94;5102421;28;20191;-76
2022/04/21 08:42:31;;;;;;;4.73;4.33;;;;;;;10.65;62.50;100186.91;5099703;28;20200;-78
2022/04/21 08:44:58;;;;;;;6.10;4.47;;;;;;;10.66;62.41;100206.88;5100167;28;20225;-79
2022/04/21 08:47:28;;;;;;;5.00;4.53;;;;;;;10.60;62.15;100225.28;5103260;28;20235;-79
2022/04/21 08:49:57;;;;;;;4.47;4.07;;;;;;;10.55;61.83;100225.41;5102065;28;20723;-77
2022/04/21 08:52:24;;;;;;;5.13;4.53;;;;;;;10.41;62.63;100204.84;5100397;28;20195;-78
2022/04/21 08:54:51;;;;;;;5.00;4.60;;;;;;;10.34;63.15;100198.03;5101288;28;20204;-77
2022/04/21 08:57:17;;;;;;;4.63;4.20;;;;;;;10.20;63.27;100180.03;5101684;28;20240;-78
2022/04/21 08:59:44;;;;;;;5.23;4.83;;;;;;;10.07;64.44;100173.38;5102925;28;20195;-78
2022/04/21 09:02:10;;;;;;;5.00;4.50;;;;;;;10.12;65.97;100135.84;5100906;28;20227;-78
2022/04/21 09:04:38;;;;;;;5.93;5.33;;;;;;;10.32;65.41;100126.75;5103943;28;20226;-79
2022/04/21 09:07:15;;;;;;;5.43;5.03;;;;;;;10.46;63.97;100142.09;5099164;28;20199;-79
2022/04/21 09:10:00;;;;;;;5.07;4.43;;;;;;;10.48;63.74;100176.84;5101200;28;20219;-79
2022/04/21 09:12:26;;;;;;;5.73;4.07;;;;;;;10.54;63.05;100192.34;5100952;28;20200;-78
2022/04/21 09:14:52;;;;;;;5.03;4.53;;;;;;;10.49;62.56;100200.31;5101407;28;20201;-78
2022/04/21 09:17:19;;;;;;;5.67;4.90;;;;;;;10.58;63.31;100193.16;5103326;28;20725;-80
2022/04/21 09:19:57;;;;;;;4.70;4.30;;;;;;;10.76;63.58;100176.19;5105909;28;20653;-79
2022/04/21 09:22:24;;;;;;;5.17;4.67;;;;;;;10.88;63.06;100187.22;5102516;28;20213;-79
2022/04/21 09:24:53;;;;;;;4.90;4.47;;;;;;;11.05;61.65;100219.88;5105001;28;20196;-80
2022/04/21 09:27:19;;;;;;;5.30;4.80;;;;;;;11.15;61.41;100237.06;5107242;28;20205;-80
2022/04/21 09:29:46;;;;;;;4.73;4.43;;;;;;;11.21;61.54;100239.50;5104084;28;20217;-81
2022/04/21 09:32:16;;;;;;;5.50;5.00;;;;;;;11.42;60.59;100242.50;5105643;28;21037;-79
2022/04/21 09:34:48;;;;;;;5.40;4.37;;;;;;;11.52;60.07;100270.13;5109168;28;20196;-77
2022/04/21 09:37:18;;;;;;;7.57;4.73;;;;;;;11.66;60.94;100259.28;5104438;28;20204;-79
2022/04/21 09:39:50;;;;;;;6.40;4.77;;;;;;;11.83;59.37;100292.84;5098854;28;20195;-79
2022/04/21 09:42:23;;;;;;;5.10;4.67;;;;;;;11.95;58.72;100313.44;5105161;28;20206;-78
2022/04/21 09:47:34;;;;;;;6.17;4.20;;;;;;;12.09;58.03;100349.72;5095557;28;20622;-78
2022/04/21 09:50:11;;;;;;;4.50;4.10;;;;;;;12.07;57.73;100355.00;5107201;28;20224;-80
2022/04/21 09:52:47;;;;;;;5.87;5.20;;;;;;;12.14;57.75;100360.94;5112028;28;20200;-78
2022/04/21 09:55:26;;;;;;;6.63;4.43;;;;;;;12.19;57.49;100359.06;5106928;28;20186;-78
2022/04/21 09:58:04;;;;;;;4.97;4.40;;;;;;;12.14;57.34;100384.47;5099444;28;20254;-79
2022/04/21 10:00:31;;;;;;;4.37;3.97;;;;;;;12.12;58.52;100366.19;5105561;28;20787;-79
2022/04/21 10:02:58;;;;;;;5.57;5.07;;;;;;;12.25;57.47;100368.47;5113870;28;20265;-79
2022/04/21 10:05:25;;;;;;;4.77;4.37;;;;;;;12.38;56.72;100392.56;5106522;28;20211;-79
2022/04/21 10:07:53;;;;;;;4.40;3.90;;;;;;;12.49;57.19;100401.00;5112589;28;20259;-79
2022/04/21 10:10:20;;;;;;;6.30;4.20;;;;;;;12.59;56.12;100406.84;5097953;28;20229;-77
2022/04/21 10:12:47;;;;;;;4.97;4.47;;;;;;;12.53;56.42;100431.44;5095621;28;20264;-79
2022/04/21 10:15:13;;;;;;;5.43;4.53;;;;;;;12.62;56.27;100422.47;5096981;28;20202;-79
2022/04/21 10:17:39;;;;;;;6.43;4.60;;;;;;;12.61;57.31;100415.53;5098892;28;20235;-78
2022/04/21 10:20:08;;;;;;;4.63;4.23;;;;;;;12.70;56.29;100392.56;5098871;28;20250;-80
2022/04/21 10:22:36;;;;;;;4.83;4.50;;;;;;;12.83;55.75;100407.91;5096902;28;20213;-80
2022/04/21 10:25:05;;;;;;;5.27;4.60;;;;;;;12.91;56.22;100413.78;5096943;28;20202;-80
2022/04/21 10:27:40;;;;;;;7.10;3.97;;;;;;;13.07;55.85;100411.56;5097564;28;20230;-76
2022/04/21 10:30:16;;;;;;;4.80;4.40;;;;;;;13.22;55.84;100411.13;5097636;28;20222;-79
2022/04/21 10:32:50;;;;;;;9.03;4.53;;;;;;;13.28;56.27;100410.09;5098441;28;20666;-77
2022/04/21 10:35:21;;;;;;;4.90;4.27;;;;;;;13.39;54.98;100421.09;5096097;28;20212;-79
2022/04/21 10:37:48;;;;;;;4.60;4.20;;;;;;;13.37;56.94;100393.22;5095984;28;20201;-79
2022/04/21 10:40:21;;;;;;;6.37;5.07;;;;;;;13.54;55.01;100422.41;5096704;28;20271;-79
2022/04/21 10:42:59;;;;;;;6.27;4.40;;;;;;;13.60;56.24;100405.63;5097605;28;20226;-80
2022/04/21 10:45:27;;;;;;;4.97;4.40;;;;;;;13.78;54.08;100430.41;5097045;28;20254;-79
2022/04/21 10:48:05;;;;;;;5.10;4.67;;;;;;;13.76;53.74;100467.19;5097094;28;20210;-78
2022/04/21 10:50:32;;;;;;;4.57;4.27;;;;;;;13.76;53.50;100482.91;5093974;28;20238;-78
2022/04/21 10:58:50;;;;;;;4.87;4.30;;;;;;;13.82;53.65;100482.72;5095224;28;20208;-80
2022/04/21 11:01:22;;;;;;;4.67;4.37;;;;;;;13.90;54.16;100467.59;5096493;28;20231;-78
2022/04/21 11:04:20;;;;;;;5.30;4.63;;;;;;;14.01;54.17;100463.75;5095534;28;20664;-78
2022/04/21 11:06:48;;;;;;;6.50;4.57;;;;;;;14.04;53.96;100479.41;5095756;28;20203;-78
2022/04/21 11:09:35;;;;;;;5.13;4.63;;;;;;;13.97;53.58;100488.38;5095363;28;20289;-79
2022/04/21 11:12:04;;;;;;;4.90;4.50;;;;;;;13.96;54.31;100470.94;5095191;28;20657;-79
2022/04/21 11:14:32;;;;;;;4.43;4.13;;;;;;;13.99;55.31;100442.78;5096005;28;20207;-79
2022/04/21 11:16:59;;;;;;;4.63;4.20;;;;;;;14.13;53.59;100458.09;5096484;28;20349;-79
2022/04/21 11:19:34;;;;;;;4.60;4.00;;;;;;;14.11;55.76;100438.91;5097443;28;20245;-79
2022/04/21 11:22:02;;;;;;;4.60;4.30;;;;;;;14.20;55.36;100425.47;5097750;28;20650;-80
2022/04/21 11:25:02;;;;;;;4.43;4.07;;;;;;;14.48;53.76;100461.28;5098163;28;20210;-79
2022/04/21 11:27:31;;;;;;;4.40;4.00;;;;;;;14.63;53.11;100476.56;5096819;28;20210;-79
2022/04/21 11:30:03;;;;;;;4.60;4.20;;;;;;;14.67;53.55;100498.34;5096374;28;20231;-79
2022/04/21 11:32:30;;;;;;;4.13;3.73;;;;;;;14.53;54.21;100466.38;5095608;28;20264;-79
2022/04/21 11:35:01;;;;;;;5.20;3.80;;;;;;;14.56;53.20;100480.31;5094162;28;20205;-79
2022/04/21 11:37:54;;;;;;;4.83;4.43;;;;;;;14.49;52.54;100508.53;5094205;28;20758;-78
2022/04/21 11:40:32;;;;;;;4.60;4.30;;;;;;;14.38;52.66;100504.53;5094024;28;20228;-78
2022/04/21 11:43:03;;;;;;;5.00;4.50;;;;;;;14.21;53.77;100498.09;5093909;28;20203;-80
2022/04/21 11:45:33;;;;;;;7.70;4.27;;;;;;;14.27;54.35;100465.50;5095942;28;20206;-79
2022/04/21 11:48:00;;;;;;;4.33;3.97;;;;;;;14.28;53.29;100488.25;5095985;28;20281;-79
2022/04/21 11:50:28;;;;;;;4.27;3.97;;;;;;;14.26;53.23;100485.66;5095660;28;20253;-80
2022/04/21 11:52:56;;;;;;;3.97;3.60;;;;;;;14.15;53.67;100493.03;5095405;28;20218;-79
2022/04/21 11:55:24;;;;;;;4.13;3.83;;;;;;;14.15;53.63;100468.53;5094851;28;20573;-79
2022/04/21 11:57:51;;;;;;;4.13;3.53;;;;;;;14.09;53.41;100480.97;5095357;28;20253;-80
2022/04/21 12:06:28;;;;;;;4.73;4.20;;;;;;;14.00;53.28;100481.28;5095015;28;20234;-80
2022/04/21 12:08:44;;;;;;;3.97;3.77;;;;;;;13.72;55.59;100436.69;5101272;28;20252;-81
2022/04/21 12:11:11;;;;;;;5.37;3.83;;;;;;;13.73;55.27;100406.06;5095578;28;20234;-81
2022/04/21 12:13:38;;;;;;;4.03;3.73;;;;;;;13.69;55.11;100414.03;5090528;28;20194;-80
2022/04/21 12:16:44;;;;;;;3.93;3.60;;;;;;;13.76;54.59;100422.56;5094672;28;20249;-78
2022/04/21 12:19:16;;;;;;;4.27;3.90;;;;;;;13.76;54.83;100435.69;5095312;28;20688;-79
2022/04/21 12:21:43;;;;;;;4.07;3.73;;;;;;;13.78;54.82;100419.91;5116813;28;20230;-79
2022/04/21 12:24:14;;;;;;;5.47;4.53;;;;;;;13.84;54.99;100412.69;5114964;28;20234;-80
2022/04/21 12:26:48;;;;;;;4.43;4.13;;;;;;;13.92;58.44;100373.06;5118096;28;20293;-79
2022/04/21 12:29:14;;;;;;;4.37;3.90;;;;;;;13.98;55.14;100370.25;5103287;28;20269;-79
2022/04/21 12:31:48;;;;;;;4.13;3.73;;;;;;;14.04;54.84;100413.78;4382668;28;10000679;-78
2022/04/21 12:34:20;;;;;;;4.23;3.60;;;;;;;14.07;54.30;100425.06;5070084;28;20218;-79
2022/04/21 12:36:58;;;;;;;4.27;3.93;;;;;;;14.08;55.00;100415.41;5071302;28;20666;-78
2022/04/21 12:39:25;;;;;;;4.77;4.30;;;;;;;14.07;53.84;100437.28;5069056;28;20214;-78
2022/04/21 12:41:52;;;;;;;5.10;3.77;;;;;;;14.03;54.69;100427.81;5079390;28;20284;-78